Air Transport International B752 at Salt Lake City on Dec 19th 2013, runway excursion after landing

Last Update: December 19, 2013 / 23:50:48 GMT/Zulu time

Bookmark this article
Incident Facts

Date of incident
Dec 19, 2013

Classification
Incident

Aircraft Type
Boeing 757-200

ICAO Type Designator
B752

Airport ICAO Code
KSLC

An Air Transport International Boeing 757-200 freighter, flight 8C-594 from Denver,CO to Salt Lake City,UT (USA) with 2 crew, landed on Salt Lake City's runway 34R at 08:51L (15:51Z) and was instructed to vacate the runway at high speed turn off H9, high speed turn off H8 was closed. The aircraft skidded off H9 while attempting to turn off and slid onto taxiway H10. Tower immediately closed the runway and instructed three aircraft on final approach to go around.

The runway had been returned to service about one hour prior to the incident following snow removal and application of chemicals to prevent freezing and sand. A number of aircraft still reported poor braking action upon landing, the runway was expected to be closed any time again, due to runways 34L and 35 not being available the runway remained open however.

Metars:
KSLC 191724Z 29006KT 1/8SM -SN BR SCT008 OVC014 00/M02 A2971 RMK AO2 SFC VIS 1 P0003 T00001022 RVRNO $
KSLC 191653Z 30006KT 1/8SM -SN BR VV009 00/M02 A2969 RMK AO2 SFC VIS 3/4 SLP066 SNINCR 1/6 P0009 T00001022 RVRNO $
KSLC 191553Z 30004KT 1/8SM -SN BR SCT004 OVC008 M01/M02 A2966 RMK AO2 SFC VIS 3/4 SLP060 SNINCR 1/5 P0010 T10061022 RVRNO $
KSLC 191535Z 31006KT 1/8SM -SN BR OVC005 00/M02 A2965 RMK AO2 SFC VIS 3/4 P0007T00001017 RVRNO $
KSLC 191453Z 28010KT 1/2SM -SN BR VV006 M01/M03 A2964 RMK AO2 SFC VIS 3/4 SLP051 SNINCR 1/4 P0013 60020 I3001 T10061028 53010 RVRNO $
KSLC 191405Z 29008KT 1/2SM -SN BR OVC005 01/M02 A2961 RMK AO2 SFC VIS 1 P0002 T00061017 RVRNO $
KSLC 191353Z 29008KT 1/2SM -SN BR OVC004 01/M01 A2961 RMK AO2 SFC VIS 1 SNE02B26 SLP037 P0001 I1000 T00111011 RVRNO $
KSLC 191302Z 30008KT 1SM BR BKN003 OVC012 01/M02 A2959 RMK AO2 SFC VIS 2 SNE02 P0000 I1000 T00061017 $
Incident Facts

Date of incident
Dec 19, 2013

Classification
Incident

Aircraft Type
Boeing 757-200

ICAO Type Designator
B752

Airport ICAO Code
KSLC

This article is published under license from Avherald.com. © of text by Avherald.com.
Article source

You can read 4 more free articles without a subscription.

Subscribe now and continue reading without any limits!

Are you a subscriber?
Login
Subscribe

Read unlimited articles and receive our daily update briefing. Gain better insights into what is happening in commercial aviation safety.

Free newsletter

Want to know more and stay ahead? Get our free weekly newsletter and join 4933 existing subscribers.

By subscribing, you accept our terms and conditions and confirm that you've read our privacy policy.

Send tip

Support AeroInside by sending a small tip amount.

Related articles

Newest articles

Subscribe today

Are you researching aviation incidents? Get access to AeroInside Insights, unlimited read access and receive the daily newsletter.

Pick your plan and subscribe

Partner

Blockaviation logo

A new way to document and demonstrate airworthiness compliance and aircraft value. Find out more.

Virtual Speech logo

ELITE Simulation Solutions is a leading global provider of Flight Simulation Training Devices, IFR training software as well as flight controls and related services. Find out more.

Get updates

Never miss an article from AeroInside. Subscribe to our free weekly newsletter and join 4933 existing subscribers.

By subscribing, you accept our terms and conditions and that you've read our privacy policy.

AeroInside Blog
Popular aircraft
Airbus A320
Boeing 737-800
Boeing 737-800 MAX
Popular airlines
American Airlines
United
Delta
Air Canada
Lufthansa
British Airways